sensor_id;sensor_type;location;lat;lon;timestamp;noise_LAeq;noise_LA_min;noise_LA_max;noise_LA01;noise_LA95
51132;Laerm;37221;51.548;6.984;2022-07-15T00:00:45;35.83;30.44;47.34;;
51132;Laerm;37221;51.548;6.984;2022-07-15T00:03:11;32.48;30.67;36.25;;
51132;Laerm;37221;51.548;6.984;2022-07-15T00:05:36;35.24;30.61;47.51;;
51132;Laerm;37221;51.548;6.984;2022-07-15T00:08:02;35.69;30.47;48.31;;
51132;Laerm;37221;51.548;6.984;2022-07-15T00:10:28;36.93;31.13;45.92;;
51132;Laerm;37221;51.548;6.984;2022-07-15T00:13:00;36.46;30.73;47.69;;
51132;Laerm;37221;51.548;6.984;2022-07-15T00:15:31;38.61;30.43;49.62;;
51132;Laerm;37221;51.548;6.984;2022-07-15T00:17:59;38.91;30.96;52.80;;
51132;Laerm;37221;51.548;6.984;2022-07-15T00:20:31;35.29;30.71;45.73;;
51132;Laerm;37221;51.548;6.984;2022-07-15T00:23:05;38.83;30.71;52.38;;
51132;Laerm;37221;51.548;6.984;2022-07-15T00:25:31;36.21;30.86;50.53;;
51132;Laerm;37221;51.548;6.984;2022-07-15T00:28:02;34.46;31.01;44.82;;
51132;Laerm;37221;51.548;6.984;2022-07-15T00:30:36;35.02;31.05;44.85;;
51132;Laerm;37221;51.548;6.984;2022-07-15T00:33:03;37.72;30.93;53.99;;
51132;Laerm;37221;51.548;6.984;2022-07-15T00:35:32;35.53;31.32;43.38;;
51132;Laerm;37221;51.548;6.984;2022-07-15T00:37:59;37.47;31.52;50.21;;
51132;Laerm;37221;51.548;6.984;2022-07-15T00:40:25;38.26;31.38;49.23;;
51132;Laerm;37221;51.548;6.984;2022-07-15T00:42:51;37.16;31.28;49.48;;
51132;Laerm;37221;51.548;6.984;2022-07-15T00:45:22;34.65;31.17;44.66;;
51132;Laerm;37221;51.548;6.984;2022-07-15T00:47:56;36.09;31.06;43.06;;
51132;Laerm;37221;51.548;6.984;2022-07-15T00:50:26;40.30;31.48;50.43;;
51132;Laerm;37221;51.548;6.984;2022-07-15T00:53:05;36.30;31.28;46.11;;
51132;Laerm;37221;51.548;6.984;2022-07-15T00:55:41;39.81;31.20;49.89;;
51132;Laerm;37221;51.548;6.984;2022-07-15T00:58:18;38.10;30.72;51.13;;
51132;Laerm;37221;51.548;6.984;2022-07-15T01:00:47;36.45;30.98;50.30;;
51132;Laerm;37221;51.548;6.984;2022-07-15T01:03:17;36.76;31.17;46.86;;
51132;Laerm;37221;51.548;6.984;2022-07-15T01:05:45;39.31;31.35;50.52;;
51132;Laerm;37221;51.548;6.984;2022-07-15T01:08:16;37.26;31.36;50.84;;
51132;Laerm;37221;51.548;6.984;2022-07-15T01:10:46;34.58;31.09;42.64;;
51132;Laerm;37221;51.548;6.984;2022-07-15T01:13:12;39.75;30.92;50.28;;
51132;Laerm;37221;51.548;6.984;2022-07-15T01:15:38;37.54;31.34;48.90;;
51132;Laerm;37221;51.548;6.984;2022-07-15T01:18:06;36.47;31.05;48.28;;
51132;Laerm;37221;51.548;6.984;2022-07-15T01:20:32;37.99;31.09;52.35;;
51132;Laerm;37221;51.548;6.984;2022-07-15T01:22:58;36.37;31.25;47.62;;
51132;Laerm;37221;51.548;6.984;2022-07-15T01:25:26;37.94;31.60;49.74;;
51132;Laerm;37221;51.548;6.984;2022-07-15T01:27:52;36.89;31.62;47.04;;
51132;Laerm;37221;51.548;6.984;2022-07-15T01:30:18;37.84;31.33;50.19;;
51132;Laerm;37221;51.548;6.984;2022-07-15T01:32:43;38.63;31.15;52.81;;
51132;Laerm;37221;51.548;6.984;2022-07-15T01:35:09;35.76;31.43;46.48;;
51132;Laerm;37221;51.548;6.984;2022-07-15T01:37:35;38.06;30.99;51.06;;
51132;Laerm;37221;51.548;6.984;2022-07-15T01:40:00;40.33;31.01;52.10;;
51132;Laerm;37221;51.548;6.984;2022-07-15T01:42:26;37.74;31.42;51.75;;
51132;Laerm;37221;51.548;6.984;2022-07-15T01:44:52;34.57;31.27;42.38;;
51132;Laerm;37221;51.548;6.984;2022-07-15T01:47:17;37.56;31.44;47.25;;
51132;Laerm;37221;51.548;6.984;2022-07-15T01:49:43;43.12;31.31;57.63;;
51132;Laerm;37221;51.548;6.984;2022-07-15T01:52:09;39.38;31.27;50.28;;
51132;Laerm;37221;51.548;6.984;2022-07-15T01:54:36;39.86;30.83;55.30;;
51132;Laerm;37221;51.548;6.984;2022-07-15T01:57:02;38.16;31.16;50.23;;
51132;Laerm;37221;51.548;6.984;2022-07-15T01:59:28;40.22;30.86;49.10;;
51132;Laerm;37221;51.548;6.984;2022-07-15T02:02:58;39.05;31.08;49.60;;
51132;Laerm;37221;51.548;6.984;2022-07-15T02:05:24;39.81;31.24;52.73;;
51132;Laerm;37221;51.548;6.984;2022-07-15T02:07:50;36.75;31.16;45.59;;
51132;Laerm;37221;51.548;6.984;2022-07-15T02:10:15;38.61;30.79;47.47;;
51132;Laerm;37221;51.548;6.984;2022-07-15T02:12:41;37.69;31.11;47.81;;
51132;Laerm;37221;51.548;6.984;2022-07-15T02:15:07;36.76;31.09;55.41;;
51132;Laerm;37221;51.548;6.984;2022-07-15T02:17:33;39.04;31.20;48.00;;
51132;Laerm;37221;51.548;6.984;2022-07-15T02:19:59;40.15;31.28;50.92;;
51132;Laerm;37221;51.548;6.984;2022-07-15T02:22:24;41.20;31.34;52.33;;
51132;Laerm;37221;51.548;6.984;2022-07-15T02:24:50;37.26;31.29;46.89;;
51132;Laerm;37221;51.548;6.984;2022-07-15T02:27:16;39.18;31.12;49.40;;
51132;Laerm;37221;51.548;6.984;2022-07-15T02:29:41;43.50;31.77;54.40;;
51132;Laerm;37221;51.548;6.984;2022-07-15T02:32:07;40.44;31.57;55.11;;
51132;Laerm;37221;51.548;6.984;2022-07-15T02:34:32;38.09;31.77;49.26;;
51132;Laerm;37221;51.548;6.984;2022-07-15T02:36:58;41.34;31.63;51.66;;
51132;Laerm;37221;51.548;6.984;2022-07-15T02:39:24;39.83;31.23;50.13;;
51132;Laerm;37221;51.548;6.984;2022-07-15T02:41:49;40.47;31.23;51.36;;
51132;Laerm;37221;51.548;6.984;2022-07-15T02:44:15;40.02;31.98;47.14;;
51132;Laerm;37221;51.548;6.984;2022-07-15T02:46:41;39.00;31.48;48.33;;
51132;Laerm;37221;51.548;6.984;2022-07-15T02:49:07;40.08;32.18;48.93;;
51132;Laerm;37221;51.548;6.984;2022-07-15T02:51:32;40.95;31.70;50.66;;
51132;Laerm;37221;51.548;6.984;2022-07-15T02:53:58;40.08;31.45;49.82;;
51132;Laerm;37221;51.548;6.984;2022-07-15T02:56:24;43.15;32.16;51.30;;
51132;Laerm;37221;51.548;6.984;2022-07-15T02:58:49;42.33;31.85;51.92;;
51132;Laerm;37221;51.548;6.984;2022-07-15T03:01:15;40.61;32.05;49.31;;
51132;Laerm;37221;51.548;6.984;2022-07-15T03:03:41;44.81;32.54;55.69;;
51132;Laerm;37221;51.548;6.984;2022-07-15T03:06:07;43.28;31.81;52.10;;
51132;Laerm;37221;51.548;6.984;2022-07-15T03:08:33;42.80;32.20;52.69;;
51132;Laerm;37221;51.548;6.984;2022-07-15T03:10:58;45.81;32.92;53.57;;
51132;Laerm;37221;51.548;6.984;2022-07-15T03:13:24;43.25;33.19;55.31;;
51132;Laerm;37221;51.548;6.984;2022-07-15T03:15:50;43.07;33.41;51.48;;
51132;Laerm;37221;51.548;6.984;2022-07-15T03:18:16;45.43;34.25;54.81;;
51132;Laerm;37221;51.548;6.984;2022-07-15T03:20:42;43.42;33.85;52.80;;
51132;Laerm;37221;51.548;6.984;2022-07-15T03:23:07;44.65;33.52;54.14;;
51132;Laerm;37221;51.548;6.984;2022-07-15T03:25:33;44.02;33.65;53.26;;
51132;Laerm;37221;51.548;6.984;2022-07-15T03:27:59;41.99;32.31;52.35;;
51132;Laerm;37221;51.548;6.984;2022-07-15T03:30:24;44.98;32.85;52.74;;
51132;Laerm;37221;51.548;6.984;2022-07-15T03:32:50;45.68;32.84;57.26;;
51132;Laerm;37221;51.548;6.984;2022-07-15T03:35:16;44.30;34.04;53.42;;
51132;Laerm;37221;51.548;6.984;2022-07-15T03:37:41;46.23;35.18;54.42;;
51132;Laerm;37221;51.548;6.984;2022-07-15T03:40:08;44.46;33.83;53.62;;
51132;Laerm;37221;51.548;6.984;2022-07-15T03:42:34;44.65;33.44;54.98;;
51132;Laerm;37221;51.548;6.984;2022-07-15T03:45:00;46.47;33.75;54.20;;
51132;Laerm;37221;51.548;6.984;2022-07-15T03:47:25;45.22;33.46;54.18;;
51132;Laerm;37221;51.548;6.984;2022-07-15T03:49:53;44.52;32.67;53.34;;
51132;Laerm;37221;51.548;6.984;2022-07-15T03:52:19;45.74;35.09;54.01;;
51132;Laerm;37221;51.548;6.984;2022-07-15T03:54:44;44.66;35.61;54.63;;
51132;Laerm;37221;51.548;6.984;2022-07-15T03:57:10;45.87;33.46;55.38;;
51132;Laerm;37221;51.548;6.984;2022-07-15T03:59:36;44.92;34.15;52.88;;
51132;Laerm;37221;51.548;6.984;2022-07-15T04:02:02;43.84;34.08;51.74;;
51132;Laerm;37221;51.548;6.984;2022-07-15T04:04:27;47.16;35.90;55.79;;
51132;Laerm;37221;51.548;6.984;2022-07-15T04:06:53;44.20;33.68;52.35;;
51132;Laerm;37221;51.548;6.984;2022-07-15T04:09:19;45.80;34.80;54.62;;
51132;Laerm;37221;51.548;6.984;2022-07-15T04:11:45;46.21;34.58;53.55;;
51132;Laerm;37221;51.548;6.984;2022-07-15T04:14:13;42.97;32.97;51.03;;
51132;Laerm;37221;51.548;6.984;2022-07-15T04:16:41;45.48;33.35;52.64;;
51132;Laerm;37221;51.548;6.984;2022-07-15T04:19:06;44.00;34.62;57.11;;
51132;Laerm;37221;51.548;6.984;2022-07-15T04:21:32;43.84;33.30;57.72;;
51132;Laerm;37221;51.548;6.984;2022-07-15T04:23:59;45.30;33.62;51.99;;
51132;Laerm;37221;51.548;6.984;2022-07-15T04:26:24;44.87;36.31;52.59;;
51132;Laerm;37221;51.548;6.984;2022-07-15T04:28:50;45.99;34.28;55.24;;
51132;Laerm;37221;51.548;6.984;2022-07-15T04:31:16;46.08;34.31;55.80;;
51132;Laerm;37221;51.548;6.984;2022-07-15T04:33:41;45.35;34.29;56.23;;
51132;Laerm;37221;51.548;6.984;2022-07-15T04:36:07;44.61;34.14;53.93;;
51132;Laerm;37221;51.548;6.984;2022-07-15T04:38:33;49.62;34.35;83.13;;
51132;Laerm;37221;51.548;6.984;2022-07-15T04:40:59;45.13;35.04;54.98;;
51132;Laerm;37221;51.548;6.984;2022-07-15T04:43:24;46.37;34.51;58.26;;
51132;Laerm;37221;51.548;6.984;2022-07-15T04:45:50;44.11;33.97;53.16;;
51132;Laerm;37221;51.548;6.984;2022-07-15T04:48:16;43.17;35.40;50.68;;
51132;Laerm;37221;51.548;6.984;2022-07-15T04:51:00;46.14;34.91;53.50;;
51132;Laerm;37221;51.548;6.984;2022-07-15T04:53:26;45.50;34.03;58.21;;
51132;Laerm;37221;51.548;6.984;2022-07-15T04:55:52;44.39;35.27;58.39;;
51132;Laerm;37221;51.548;6.984;2022-07-15T04:58:17;46.18;35.95;55.29;;
51132;Laerm;37221;51.548;6.984;2022-07-15T05:00:46;44.65;34.64;53.91;;
51132;Laerm;37221;51.548;6.984;2022-07-15T05:03:13;45.82;34.17;53.16;;
51132;Laerm;37221;51.548;6.984;2022-07-15T05:05:39;45.95;34.95;56.60;;
51132;Laerm;37221;51.548;6.984;2022-07-15T05:08:07;45.05;34.40;55.57;;
51132;Laerm;37221;51.548;6.984;2022-07-15T05:10:33;47.81;34.28;59.19;;
51132;Laerm;37221;51.548;6.984;2022-07-15T05:12:58;46.38;34.29;55.17;;
51132;Laerm;37221;51.548;6.984;2022-07-15T05:15:24;45.74;36.10;52.45;;
51132;Laerm;37221;51.548;6.984;2022-07-15T05:17:50;45.93;36.33;57.22;;
51132;Laerm;37221;51.548;6.984;2022-07-15T05:20:16;44.53;33.37;53.93;;
51132;Laerm;37221;51.548;6.984;2022-07-15T05:22:42;46.53;35.16;54.52;;
51132;Laerm;37221;51.548;6.984;2022-07-15T05:25:08;45.70;35.18;54.16;;
51132;Laerm;37221;51.548;6.984;2022-07-15T05:27:34;43.98;32.98;61.96;;
51132;Laerm;37221;51.548;6.984;2022-07-15T05:30:00;46.62;36.10;61.07;;
51132;Laerm;37221;51.548;6.984;2022-07-15T05:32:26;44.42;36.18;51.66;;
51132;Laerm;37221;51.548;6.984;2022-07-15T05:34:51;44.41;34.66;51.47;;
51132;Laerm;37221;51.548;6.984;2022-07-15T05:37:17;47.14;34.23;60.50;;
51132;Laerm;37221;51.548;6.984;2022-07-15T05:39:42;45.13;33.83;54.07;;
51132;Laerm;37221;51.548;6.984;2022-07-15T05:42:21;45.95;33.81;60.12;;
51132;Laerm;37221;51.548;6.984;2022-07-15T05:44:47;45.46;34.36;56.29;;
51132;Laerm;37221;51.548;6.984;2022-07-15T05:47:15;44.57;34.87;55.61;;
51132;Laerm;37221;51.548;6.984;2022-07-15T05:49:41;47.32;39.88;57.72;;
51132;Laerm;37221;51.548;6.984;2022-07-15T05:52:08;45.41;33.14;54.12;;
51132;Laerm;37221;51.548;6.984;2022-07-15T05:54:34;47.09;32.86;55.62;;
51132;Laerm;37221;51.548;6.984;2022-07-15T05:57:00;47.76;32.61;57.09;;
51132;Laerm;37221;51.548;6.984;2022-07-15T05:59:26;44.62;31.08;54.75;;
51132;Laerm;37221;51.548;6.984;2022-07-15T06:01:51;48.06;34.26;55.33;;
51132;Laerm;37221;51.548;6.984;2022-07-15T06:04:18;46.47;31.59;55.12;;
51132;Laerm;37221;51.548;6.984;2022-07-15T06:06:43;45.61;33.99;53.59;;
51132;Laerm;37221;51.548;6.984;2022-07-15T06:09:09;47.67;31.50;56.03;;
51132;Laerm;37221;51.548;6.984;2022-07-15T06:11:35;46.00;33.25;55.42;;
51132;Laerm;37221;51.548;6.984;2022-07-15T06:14:02;45.98;33.02;55.93;;
51132;Laerm;37221;51.548;6.984;2022-07-15T06:16:29;47.35;36.57;55.40;;
51132;Laerm;37221;51.548;6.984;2022-07-15T06:18:55;45.20;32.40;53.86;;
51132;Laerm;37221;51.548;6.984;2022-07-15T06:21:20;46.24;33.44;57.02;;
51132;Laerm;37221;51.548;6.984;2022-07-15T06:23:46;46.79;30.11;56.43;;
51132;Laerm;37221;51.548;6.984;2022-07-15T06:26:11;44.33;33.12;54.70;;
51132;Laerm;37221;51.548;6.984;2022-07-15T06:28:37;46.92;32.11;54.89;;
51132;Laerm;37221;51.548;6.984;2022-07-15T06:31:03;46.83;33.70;55.46;;
51132;Laerm;37221;51.548;6.984;2022-07-15T06:33:28;44.54;30.44;53.80;;
51132;Laerm;37221;51.548;6.984;2022-07-15T06:35:54;48.48;32.02;57.04;;
51132;Laerm;37221;51.548;6.984;2022-07-15T06:38:20;50.46;31.93;69.12;;
51132;Laerm;37221;51.548;6.984;2022-07-15T06:40:46;44.49;30.91;53.54;;
51132;Laerm;37221;51.548;6.984;2022-07-15T06:43:13;47.46;31.91;53.50;;
51132;Laerm;37221;51.548;6.984;2022-07-15T06:45:39;46.03;34.30;53.74;;
51132;Laerm;37221;51.548;6.984;2022-07-15T06:48:05;45.40;29.59;54.68;;
51132;Laerm;37221;51.548;6.984;2022-07-15T06:50:31;46.24;28.83;58.21;;
51132;Laerm;37221;51.548;6.984;2022-07-15T06:52:57;45.07;28.92;56.10;;
51132;Laerm;37221;51.548;6.984;2022-07-15T06:55:23;44.01;29.92;52.99;;
51132;Laerm;37221;51.548;6.984;2022-07-15T06:57:48;42.09;28.04;50.63;;
51132;Laerm;37221;51.548;6.984;2022-07-15T07:00:14;39.18;27.79;48.27;;
51132;Laerm;37221;51.548;6.984;2022-07-15T07:02:41;44.07;30.89;53.77;;
51132;Laerm;37221;51.548;6.984;2022-07-15T07:05:08;41.93;28.18;53.32;;
51132;Laerm;37221;51.548;6.984;2022-07-15T07:07:35;41.11;29.21;50.06;;
51132;Laerm;37221;51.548;6.984;2022-07-15T07:10:02;43.75;29.29;52.30;;
51132;Laerm;37221;51.548;6.984;2022-07-15T07:12:27;41.62;28.90;54.84;;
51132;Laerm;37221;51.548;6.984;2022-07-15T07:14:53;43.06;27.58;52.08;;
51132;Laerm;37221;51.548;6.984;2022-07-15T07:17:20;44.30;28.76;53.60;;
51132;Laerm;37221;51.548;6.984;2022-07-15T07:19:45;40.56;28.61;50.51;;
51132;Laerm;37221;51.548;6.984;2022-07-15T07:22:11;43.82;27.46;51.63;;
51132;Laerm;37221;51.548;6.984;2022-07-15T07:24:37;42.00;28.19;49.22;;
51132;Laerm;37221;51.548;6.984;2022-07-15T07:27:03;41.01;29.27;48.38;;
51132;Laerm;37221;51.548;6.984;2022-07-15T07:29:31;43.20;29.59;51.03;;
51132;Laerm;37221;51.548;6.984;2022-07-15T07:31:56;41.43;28.42;48.56;;
51132;Laerm;37221;51.548;6.984;2022-07-15T07:34:22;42.40;27.60;52.26;;
51132;Laerm;37221;51.548;6.984;2022-07-15T07:36:48;43.14;29.87;51.36;;
51132;Laerm;37221;51.548;6.984;2022-07-15T07:39:14;42.93;31.71;56.85;;
51132;Laerm;37221;51.548;6.984;2022-07-15T07:41:41;43.20;30.74;52.76;;
51132;Laerm;37221;51.548;6.984;2022-07-15T07:44:06;43.79;29.80;55.46;;
51132;Laerm;37221;51.548;6.984;2022-07-15T07:46:33;42.21;31.22;50.46;;
51132;Laerm;37221;51.548;6.984;2022-07-15T07:48:59;43.46;29.12;50.25;;
51132;Laerm;37221;51.548;6.984;2022-07-15T07:51:25;43.05;30.54;52.96;;
51132;Laerm;37221;51.548;6.984;2022-07-15T07:53:51;41.17;29.44;50.54;;
51132;Laerm;37221;51.548;6.984;2022-07-15T07:56:17;44.17;30.76;52.33;;
51132;Laerm;37221;51.548;6.984;2022-07-15T07:58:42;42.60;32.52;50.37;;
51132;Laerm;37221;51.548;6.984;2022-07-15T08:01:08;43.58;31.75;56.11;;
51132;Laerm;37221;51.548;6.984;2022-07-15T08:03:34;43.93;29.41;53.53;;
51132;Laerm;37221;51.548;6.984;2022-07-15T08:06:00;43.22;28.62;56.25;;
51132;Laerm;37221;51.548;6.984;2022-07-15T08:08:26;44.48;30.00;52.18;;
51132;Laerm;37221;51.548;6.984;2022-07-15T08:10:56;44.09;28.12;52.35;;
51132;Laerm;37221;51.548;6.984;2022-07-15T08:13:26;40.82;28.19;48.82;;
51132;Laerm;37221;51.548;6.984;2022-07-15T08:15:53;44.29;30.34;52.20;;
51132;Laerm;37221;51.548;6.984;2022-07-15T08:18:20;40.62;28.07;48.03;;
51132;Laerm;37221;51.548;6.984;2022-07-15T08:20:46;42.88;28.54;51.16;;
51132;Laerm;37221;51.548;6.984;2022-07-15T08:23:11;43.62;28.27;60.80;;
51132;Laerm;37221;51.548;6.984;2022-07-15T08:25:38;42.86;30.84;53.86;;
51132;Laerm;37221;51.548;6.984;2022-07-15T08:28:06;42.58;28.33;49.79;;
51132;Laerm;37221;51.548;6.984;2022-07-15T08:30:33;42.89;30.78;52.87;;
51132;Laerm;37221;51.548;6.984;2022-07-15T08:33:00;43.35;30.77;53.69;;
51132;Laerm;37221;51.548;6.984;2022-07-15T08:35:27;42.91;28.83;50.47;;
51132;Laerm;37221;51.548;6.984;2022-07-15T08:37:54;41.97;30.73;53.17;;
51132;Laerm;37221;51.548;6.984;2022-07-15T08:40:20;42.05;29.06;50.03;;
51132;Laerm;37221;51.548;6.984;2022-07-15T08:42:47;43.58;29.75;52.69;;
51132;Laerm;37221;51.548;6.984;2022-07-15T08:45:16;43.52;28.90;54.00;;
51132;Laerm;37221;51.548;6.984;2022-07-15T08:48:35;43.02;29.29;52.66;;
51132;Laerm;37221;51.548;6.984;2022-07-15T08:51:05;41.31;31.14;48.51;;
51132;Laerm;37221;51.548;6.984;2022-07-15T08:53:33;43.27;27.73;51.07;;
51132;Laerm;37221;51.548;6.984;2022-07-15T08:56:00;40.49;30.86;51.20;;
51132;Laerm;37221;51.548;6.984;2022-07-15T08:58:26;43.03;31.27;52.05;;
51132;Laerm;37221;51.548;6.984;2022-07-15T09:00:52;42.60;30.27;54.31;;
51132;Laerm;37221;51.548;6.984;2022-07-15T09:03:18;40.86;27.77;49.76;;
51132;Laerm;37221;51.548;6.984;2022-07-15T09:05:44;42.96;29.67;51.26;;
51132;Laerm;37221;51.548;6.984;2022-07-15T09:08:14;41.89;29.01;50.72;;
51132;Laerm;37221;51.548;6.984;2022-07-15T09:13:38;41.71;32.00;49.57;;
51132;Laerm;37221;51.548;6.984;2022-07-15T09:16:10;41.14;27.49;49.89;;
51132;Laerm;37221;51.548;6.984;2022-07-15T09:18:41;42.64;26.93;52.04;;
51132;Laerm;37221;51.548;6.984;2022-07-15T09:23:45;43.54;29.39;64.03;;
51132;Laerm;37221;51.548;6.984;2022-07-15T09:26:33;40.78;30.67;48.67;;
51132;Laerm;37221;51.548;6.984;2022-07-15T09:29:03;43.45;29.90;50.70;;
51132;Laerm;37221;51.548;6.984;2022-07-15T09:31:57;40.34;28.22;49.05;;
51132;Laerm;37221;51.548;6.984;2022-07-15T09:35:06;42.29;28.04;52.47;;
51132;Laerm;37221;51.548;6.984;2022-07-15T09:37:59;42.15;30.52;50.95;;
51132;Laerm;37221;51.548;6.984;2022-07-15T09:40:26;41.92;29.41;51.36;;
51132;Laerm;37221;51.548;6.984;2022-07-15T09:43:06;42.67;28.59;51.39;;
51132;Laerm;37221;51.548;6.984;2022-07-15T09:45:36;42.41;27.42;51.67;;
51132;Laerm;37221;51.548;6.984;2022-07-15T09:48:11;41.32;29.47;54.19;;
51132;Laerm;37221;51.548;6.984;2022-07-15T09:50:40;42.46;27.99;49.59;;
51132;Laerm;37221;51.548;6.984;2022-07-15T09:53:14;40.06;29.55;48.49;;
51132;Laerm;37221;51.548;6.984;2022-07-15T09:55:40;42.20;28.41;51.10;;
51132;Laerm;37221;51.548;6.984;2022-07-15T09:58:07;42.14;27.14;51.03;;
51132;Laerm;37221;51.548;6.984;2022-07-15T10:00:37;41.55;30.43;49.78;;
51132;Laerm;37221;51.548;6.984;2022-07-15T10:03:03;44.07;27.10;61.72;;
51132;Laerm;37221;51.548;6.984;2022-07-15T10:05:30;39.50;28.69;50.84;;
51132;Laerm;37221;51.548;6.984;2022-07-15T10:08:02;42.96;28.89;52.42;;
51132;Laerm;37221;51.548;6.984;2022-07-15T10:10:27;43.17;28.28;53.89;;
51132;Laerm;37221;51.548;6.984;2022-07-15T10:17:06;42.27;29.45;49.94;;
51132;Laerm;37221;51.548;6.984;2022-07-15T10:23:02;41.31;30.62;48.04;;
51132;Laerm;37221;51.548;6.984;2022-07-15T10:29:06;40.13;31.51;48.98;;
51132;Laerm;37221;51.548;6.984;2022-07-15T10:31:38;42.64;32.30;52.53;;
51132;Laerm;37221;51.548;6.984;2022-07-15T10:36:57;43.46;29.52;52.75;;
51132;Laerm;37221;51.548;6.984;2022-07-15T10:39:57;41.32;29.44;49.74;;
51132;Laerm;37221;51.548;6.984;2022-07-15T10:43:00;41.53;29.65;51.18;;
51132;Laerm;37221;51.548;6.984;2022-07-15T10:45:27;41.80;29.76;49.64;;
51132;Laerm;37221;51.548;6.984;2022-07-15T10:48:28;41.11;28.85;50.04;;
51132;Laerm;37221;51.548;6.984;2022-07-15T10:51:02;42.58;28.79;51.44;;
51132;Laerm;37221;51.548;6.984;2022-07-15T10:53:28;41.26;28.18;49.72;;
51132;Laerm;37221;51.548;6.984;2022-07-15T10:55:55;40.79;30.15;49.35;;
51132;Laerm;37221;51.548;6.984;2022-07-15T10:58:22;43.78;31.21;54.77;;
51132;Laerm;37221;51.548;6.984;2022-07-15T11:00:48;40.69;31.50;48.24;;
51132;Laerm;37221;51.548;6.984;2022-07-15T11:03:19;40.50;30.37;48.79;;
51132;Laerm;37221;51.548;6.984;2022-07-15T11:13:45;40.28;30.29;47.31;;
51132;Laerm;37221;51.548;6.984;2022-07-15T11:16:16;40.89;30.72;47.99;;
51132;Laerm;37221;51.548;6.984;2022-07-15T11:19:11;41.84;30.48;52.03;;
51132;Laerm;37221;51.548;6.984;2022-07-15T11:21:37;42.57;29.11;49.87;;
51132;Laerm;37221;51.548;6.984;2022-07-15T11:25:06;40.34;31.14;47.59;;
51132;Laerm;37221;51.548;6.984;2022-07-15T11:27:32;39.92;30.23;49.90;;
51132;Laerm;37221;51.548;6.984;2022-07-15T11:30:03;40.82;30.42;48.21;;
51132;Laerm;37221;51.548;6.984;2022-07-15T11:32:33;41.55;27.39;50.03;;
51132;Laerm;37221;51.548;6.984;2022-07-15T11:35:03;38.59;28.31;47.90;;
51132;Laerm;37221;51.548;6.984;2022-07-15T11:37:35;41.43;27.57;49.71;;
51132;Laerm;37221;51.548;6.984;2022-07-15T11:40:19;39.50;28.10;49.30;;
51132;Laerm;37221;51.548;6.984;2022-07-15T11:43:21;43.02;28.00;52.44;;
51132;Laerm;37221;51.548;6.984;2022-07-15T11:46:06;41.10;27.34;51.47;;
51132;Laerm;37221;51.548;6.984;2022-07-15T11:48:39;41.44;32.41;47.89;;
51132;Laerm;37221;51.548;6.984;2022-07-15T11:51:09;41.71;30.92;50.91;;
51132;Laerm;37221;51.548;6.984;2022-07-15T11:53:44;41.74;33.02;48.84;;
51132;Laerm;37221;51.548;6.984;2022-07-15T11:56:13;39.74;29.57;52.43;;
51132;Laerm;37221;51.548;6.984;2022-07-15T11:58:45;41.45;31.84;50.08;;
51132;Laerm;37221;51.548;6.984;2022-07-15T12:01:23;40.38;31.52;49.68;;
51132;Laerm;37221;51.548;6.984;2022-07-15T12:03:53;40.99;32.78;49.50;;
51132;Laerm;37221;51.548;6.984;2022-07-15T12:06:31;43.58;30.95;72.33;;
51132;Laerm;37221;51.548;6.984;2022-07-15T12:09:04;39.74;30.11;46.07;;
51132;Laerm;37221;51.548;6.984;2022-07-15T12:11:38;40.82;30.70;49.74;;
51132;Laerm;37221;51.548;6.984;2022-07-15T12:14:18;39.06;28.28;49.04;;
51132;Laerm;37221;51.548;6.984;2022-07-15T12:16:52;41.47;30.46;49.66;;
51132;Laerm;37221;51.548;6.984;2022-07-15T12:19:27;40.03;31.27;47.16;;
51132;Laerm;37221;51.548;6.984;2022-07-15T12:22:07;41.69;34.91;49.27;;
51132;Laerm;37221;51.548;6.984;2022-07-15T12:24:48;38.94;29.50;48.53;;
51132;Laerm;37221;51.548;6.984;2022-07-15T12:27:19;39.30;28.96;47.85;;
51132;Laerm;37221;51.548;6.984;2022-07-15T12:30:08;38.59;31.36;46.56;;
51132;Laerm;37221;51.548;6.984;2022-07-15T12:32:34;40.25;30.91;51.16;;
51132;Laerm;37221;51.548;6.984;2022-07-15T12:35:05;40.09;31.67;67.26;;
51132;Laerm;37221;51.548;6.984;2022-07-15T12:40:14;39.97;31.23;48.10;;
51132;Laerm;37221;51.548;6.984;2022-07-15T12:42:46;40.52;32.17;57.48;;
51132;Laerm;37221;51.548;6.984;2022-07-15T12:45:21;41.30;32.17;48.58;;
51132;Laerm;37221;51.548;6.984;2022-07-15T12:48:11;38.68;29.53;47.74;;
51132;Laerm;37221;51.548;6.984;2022-07-15T12:53:15;38.42;29.69;44.40;;
51132;Laerm;37221;51.548;6.984;2022-07-15T12:55:46;40.22;31.74;46.65;;
51132;Laerm;37221;51.548;6.984;2022-07-15T12:58:17;39.05;29.85;51.24;;
51132;Laerm;37221;51.548;6.984;2022-07-15T13:00:45;39.49;29.80;51.26;;
51132;Laerm;37221;51.548;6.984;2022-07-15T13:03:21;40.20;29.98;52.34;;
51132;Laerm;37221;51.548;6.984;2022-07-15T13:05:54;36.46;28.61;44.76;;
51132;Laerm;37221;51.548;6.984;2022-07-15T13:08:30;39.14;28.90;46.76;;
51132;Laerm;37221;51.548;6.984;2022-07-15T13:11:01;39.47;33.02;49.41;;
51132;Laerm;37221;51.548;6.984;2022-07-15T13:13:32;39.75;32.56;49.38;;
51132;Laerm;37221;51.548;6.984;2022-07-15T13:16:00;38.28;29.45;48.75;;
51132;Laerm;37221;51.548;6.984;2022-07-15T13:18:29;39.16;29.14;50.05;;
51132;Laerm;37221;51.548;6.984;2022-07-15T13:20:57;41.55;29.34;49.73;;
51132;Laerm;37221;51.548;6.984;2022-07-15T13:23:24;40.43;30.34;50.10;;
51132;Laerm;37221;51.548;6.984;2022-07-15T13:25:51;41.85;30.18;49.15;;
51132;Laerm;37221;51.548;6.984;2022-07-15T13:28:20;41.44;31.63;48.14;;
51132;Laerm;37221;51.548;6.984;2022-07-15T13:30:46;39.04;30.23;46.65;;
51132;Laerm;37221;51.548;6.984;2022-07-15T13:33:13;40.06;31.13;48.36;;
51132;Laerm;37221;51.548;6.984;2022-07-15T13:35:38;39.73;28.26;46.89;;
51132;Laerm;37221;51.548;6.984;2022-07-15T13:38:04;39.14;30.13;47.34;;
51132;Laerm;37221;51.548;6.984;2022-07-15T13:40:30;39.08;30.96;45.60;;
51132;Laerm;37221;51.548;6.984;2022-07-15T13:42:56;39.06;30.35;45.26;;
51132;Laerm;37221;51.548;6.984;2022-07-15T13:45:22;39.26;31.80;45.33;;
51132;Laerm;37221;51.548;6.984;2022-07-15T13:47:48;40.19;32.94;45.26;;
51132;Laerm;37221;51.548;6.984;2022-07-15T13:50:14;41.22;29.66;53.47;;
51132;Laerm;37221;51.548;6.984;2022-07-15T13:53:00;41.77;29.45;51.37;;
51132;Laerm;37221;51.548;6.984;2022-07-15T13:55:28;41.57;30.02;49.94;;
51132;Laerm;37221;51.548;6.984;2022-07-15T13:57:53;41.76;29.73;56.70;;
51132;Laerm;37221;51.548;6.984;2022-07-15T14:00:24;43.66;32.29;52.83;;
51132;Laerm;37221;51.548;6.984;2022-07-15T14:02:53;41.17;30.33;64.08;;
51132;Laerm;37221;51.548;6.984;2022-07-15T14:05:22;41.41;31.65;50.53;;
51132;Laerm;37221;51.548;6.984;2022-07-15T14:07:48;40.85;27.58;48.82;;
51132;Laerm;37221;51.548;6.984;2022-07-15T14:10:14;41.70;31.85;56.45;;
51132;Laerm;37221;51.548;6.984;2022-07-15T14:12:40;42.43;31.75;49.64;;
51132;Laerm;37221;51.548;6.984;2022-07-15T14:15:07;41.58;28.74;50.26;;
51132;Laerm;37221;51.548;6.984;2022-07-15T14:17:32;42.23;29.80;56.70;;
51132;Laerm;37221;51.548;6.984;2022-07-15T14:19:58;41.94;31.10;49.88;;
51132;Laerm;37221;51.548;6.984;2022-07-15T14:22:25;42.79;28.09;59.08;;
51132;Laerm;37221;51.548;6.984;2022-07-15T14:24:52;41.63;28.46;50.28;;
51132;Laerm;37221;51.548;6.984;2022-07-15T14:27:18;41.69;31.69;49.19;;